Time;durP1;ratioP1;P1;durP2;ratioP2;P2;SDS_P1;SDS_P2;PMS_P1;PMS_P2;Temp;Humidity;BMP_temperature;BMP_pressure;BME280_temperature;BME280_humidity;BME280_pressure;Samples;Min_cycle;Max_cycle;Signal;HPM_P1;HPM_P2
2022/07/11 00:00:09;;;;;;;11.20;7.23;;;21.70;99.90;;;;;;5086111;28;20218;-69
2022/07/11 00:02:38;;;;;;;13.13;7.37;;;21.70;99.90;;;;;;5061366;28;20600;-69
2022/07/11 00:05:06;;;;;;;15.23;7.37;;;21.70;99.90;;;;;;5048614;28;20182;-71
2022/07/11 00:07:32;;;;;;;14.67;7.03;;;21.70;99.90;;;;;;5076326;28;20186;-69
2022/07/11 00:09:59;;;;;;;17.57;7.50;;;21.60;99.90;;;;;;5085908;28;20202;-69
2022/07/11 00:12:26;;;;;;;11.70;7.00;;;21.50;99.90;;;;;;5086523;28;20713;-70
2022/07/11 00:14:57;;;;;;;12.83;7.33;;;21.60;99.90;;;;;;5090640;28;20182;-69
2022/07/11 00:17:24;;;;;;;10.97;7.20;;;21.50;99.90;;;;;;5091048;28;20214;-69
2022/07/11 00:19:50;;;;;;;14.10;7.47;;;21.60;99.90;;;;;;5077941;28;20244;-70
2022/07/11 00:22:18;;;;;;;12.63;7.47;;;21.60;99.90;;;;;;5091464;28;20239;-70
2022/07/11 00:24:44;;;;;;;14.37;7.90;;;21.50;99.90;;;;;;5081806;28;20672;-70
2022/07/11 00:27:10;;;;;;;19.03;8.57;;;21.50;99.90;;;;;;5090534;28;20607;-71
2022/07/11 00:29:37;;;;;;;12.53;7.87;;;21.40;99.90;;;;;;5091142;28;20833;-69
2022/07/11 00:32:03;;;;;;;13.17;8.03;;;21.40;99.90;;;;;;5073831;28;20217;-69
2022/07/11 00:34:30;;;;;;;14.87;7.33;;;21.40;99.90;;;;;;5094003;28;20867;-69
2022/07/11 00:36:56;;;;;;;12.03;7.63;;;21.40;99.90;;;;;;5089219;28;20186;-69
2022/07/11 00:39:22;;;;;;;14.30;7.43;;;21.40;99.90;;;;;;5078212;28;20226;-69
2022/07/11 00:41:48;;;;;;;10.87;7.83;;;21.30;99.90;;;;;;5071253;28;20187;-70
2022/07/11 00:44:15;;;;;;;12.47;7.53;;;21.30;99.90;;;;;;5072502;28;20182;-70
2022/07/11 00:46:41;;;;;;;13.33;8.30;;;21.30;99.90;;;;;;5067760;28;20217;-70
2022/07/11 00:49:09;;;;;;;14.37;7.87;;;20.80;99.90;;;;;;5059494;28;20192;-71
2022/07/11 00:51:36;;;;;;;15.97;8.17;;;20.90;99.90;;;;;;5065157;28;20193;-68
2022/07/11 00:54:06;;;;;;;19.37;8.63;;;20.90;99.90;;;;;;5090479;28;20629;-69
2022/07/11 00:56:32;;;;;;;13.53;7.90;;;21.00;99.90;;;;;;5090165;28;20191;-70
2022/07/11 00:58:59;;;;;;;16.73;8.37;;;21.10;99.90;;;;;;5090751;28;20214;-69
2022/07/11 01:01:26;;;;;;;15.33;8.27;;;21.10;99.90;;;;;;5068671;28;20720;-69
2022/07/11 01:03:52;;;;;;;12.30;7.63;;;21.20;99.90;;;;;;5081539;28;20186;-68
2022/07/11 01:06:19;;;;;;;15.57;7.93;;;21.10;99.90;;;;;;5088721;28;20186;-68
2022/07/11 01:08:45;;;;;;;10.53;7.30;;;21.20;99.90;;;;;;5090975;28;20195;-69
2022/07/11 01:11:15;;;;;;;14.03;8.47;;;21.20;99.90;;;;;;5073587;28;20587;-70
2022/07/11 01:13:43;;;;;;;14.20;8.17;;;21.20;99.90;;;;;;5089964;28;20197;-69
2022/07/11 01:16:14;;;;;;;13.57;8.50;;;21.30;99.90;;;;;;5090412;28;20202;-71
2022/07/11 01:18:46;;;;;;;12.57;7.90;;;21.30;99.90;;;;;;5090912;28;20233;-70
2022/07/11 01:21:31;;;;;;;14.50;7.80;;;21.30;99.90;;;;;;5080506;28;20519;-69
2022/07/11 01:24:03;;;;;;;12.37;7.97;;;21.20;99.90;;;;;;5090347;28;20239;-68
2022/07/11 01:26:30;;;;;;;11.50;7.77;;;21.20;99.90;;;;;;5086322;28;20229;-70
2022/07/11 01:29:14;;;;;;;16.10;8.10;;;21.20;99.90;;;;;;5089879;28;20852;-69
2022/07/11 01:31:45;;;;;;;12.70;8.13;;;21.20;99.90;;;;;;5074555;28;20191;-70
2022/07/11 01:34:12;;;;;;;12.40;7.53;;;21.20;99.90;;;;;;5085383;28;20194;-68
2022/07/11 01:36:38;;;;;;;13.53;7.90;;;21.20;99.90;;;;;;5087482;28;20277;-69
2022/07/11 01:39:04;;;;;;;14.63;7.87;;;21.30;99.90;;;;;;5071394;28;20287;-71
2022/07/11 01:41:31;;;;;;;10.77;7.93;;;21.20;99.90;;;;;;5088874;28;20205;-69
2022/07/11 01:43:58;;;;;;;14.50;8.07;;;21.20;99.90;;;;;;5089418;28;20871;-69
2022/07/11 01:46:24;;;;;;;13.73;7.57;;;21.20;99.90;;;;;;5072116;28;20209;-68
2022/07/11 01:48:50;;;;;;;11.00;7.20;;;21.10;99.90;;;;;;5073599;28;20244;-69
2022/07/11 01:51:17;;;;;;;14.63;8.47;;;21.00;99.90;;;;;;5071812;28;20208;-70
2022/07/11 01:53:44;;;;;;;17.10;8.23;;;21.10;99.90;;;;;;5061399;28;20241;-68
2022/07/11 01:56:10;;;;;;;14.43;8.13;;;21.10;99.90;;;;;;5070835;28;20178;-69
2022/07/11 01:58:36;;;;;;;16.07;7.60;;;21.20;99.90;;;;;;5081051;28;20611;-69
2022/07/11 02:01:02;;;;;;;12.63;7.93;;;21.20;99.90;;;;;;5077546;28;20231;-68
2022/07/11 02:03:29;;;;;;;15.30;7.70;;;21.20;99.90;;;;;;5081189;28;20182;-68
2022/07/11 02:05:56;;;;;;;14.83;8.30;;;21.20;99.90;;;;;;5082353;28;20187;-71
2022/07/11 02:08:22;;;;;;;15.70;8.00;;;21.20;99.90;;;;;;5085136;28;20194;-69
2022/07/11 02:10:52;;;;;;;11.97;8.00;;;21.20;99.90;;;;;;5079884;28;20270;-68
2022/07/11 02:13:20;;;;;;;13.70;8.20;;;21.20;99.90;;;;;;5089497;28;20243;-70
2022/07/11 02:15:49;;;;;;;12.27;7.77;;;21.20;99.90;;;;;;5084254;28;20209;-69
2022/07/11 02:18:15;;;;;;;11.63;7.43;;;21.20;99.90;;;;;;5079175;28;20261;-69
2022/07/11 02:20:42;;;;;;;15.87;8.30;;;21.20;99.90;;;;;;5087289;28;20638;-70
2022/07/11 02:23:09;;;;;;;13.97;7.80;;;21.00;99.90;;;;;;5064749;28;20745;-70
2022/07/11 02:25:39;;;;;;;13.93;8.03;;;21.10;99.90;;;;;;5085622;28;20206;-68
2022/07/11 02:28:10;;;;;;;15.87;7.77;;;21.10;99.90;;;;;;5088167;28;20205;-70
2022/07/11 02:30:42;;;;;;;17.37;8.43;;;21.10;99.90;;;;;;5085188;28;20193;-69
2022/07/11 02:33:16;;;;;;;12.47;8.40;;;21.20;99.90;;;;;;5082951;28;20205;-69
2022/07/11 02:35:44;;;;;;;13.50;8.00;;;21.20;99.90;;;;;;5075266;28;21001;-68
2022/07/11 02:38:10;;;;;;;17.00;8.90;;;21.20;99.90;;;;;;5069217;28;20200;-71
2022/07/11 02:40:37;;;;;;;16.77;9.07;;;21.20;99.90;;;;;;5077015;28;20244;-70
2022/07/11 02:43:03;;;;;;;16.10;8.63;;;21.10;99.90;;;;;;5070492;28;20190;-69
2022/07/11 02:45:30;;;;;;;16.77;9.27;;;21.10;99.90;;;;;;5070174;28;20741;-69
2022/07/11 02:47:57;;;;;;;15.37;9.23;;;21.10;99.90;;;;;;5087062;28;20174;-69
2022/07/11 02:50:23;;;;;;;16.43;8.43;;;21.10;99.90;;;;;;5089302;28;20287;-70
2022/07/11 02:52:49;;;;;;;16.97;9.47;;;21.00;99.90;;;;;;5065123;28;20194;-71
2022/07/11 02:55:15;;;;;;;15.17;8.73;;;21.10;99.90;;;;;;5060521;28;20181;-69
2022/07/11 02:57:42;;;;;;;13.47;8.90;;;21.10;99.90;;;;;;5087750;28;20273;-69
2022/07/11 03:00:18;;;;;;;13.67;8.80;;;21.10;99.90;;;;;;5089239;28;20202;-68
2022/07/11 03:02:44;;;;;;;15.97;9.03;;;21.10;99.90;;;;;;5088389;28;20190;-68
2022/07/11 03:05:12;;;;;;;17.87;8.77;;;21.10;99.90;;;;;;5087707;28;20301;-70
2022/07/11 03:07:39;;;;;;;12.83;8.80;;;21.10;99.90;;;;;;5064455;28;20186;-69
2022/07/11 03:10:06;;;;;;;17.17;8.83;;;21.10;99.90;;;;;;5087904;28;20185;-69
2022/07/11 03:12:33;;;;;;;14.20;7.83;;;21.10;99.90;;;;;;5073903;28;20212;-69
2022/07/11 03:14:59;;;;;;;17.33;8.83;;;21.10;99.90;;;;;;5065875;28;20198;-68
2022/07/11 03:17:25;;;;;;;14.53;8.63;;;21.10;99.90;;;;;;5086943;28;20213;-69
2022/07/11 03:19:52;;;;;;;12.37;8.20;;;21.10;99.90;;;;;;5088295;28;20232;-69
2022/07/11 03:22:18;;;;;;;14.67;9.07;;;21.10;99.90;;;;;;5087609;28;20194;-70
2022/07/11 03:24:44;;;;;;;14.53;9.30;;;21.10;99.90;;;;;;5081581;28;20861;-69
2022/07/11 03:27:11;;;;;;;13.90;8.90;;;21.10;99.90;;;;;;5084008;28;20285;-68
2022/07/11 03:29:37;;;;;;;14.07;8.43;;;21.20;99.90;;;;;;5088254;28;20182;-68
2022/07/11 03:32:04;;;;;;;17.27;8.83;;;21.20;99.90;;;;;;5088461;28;20531;-70
2022/07/11 03:34:31;;;;;;;15.80;8.33;;;21.10;99.90;;;;;;5084227;28;20201;-70
2022/07/11 03:36:59;;;;;;;16.37;8.63;;;21.10;99.90;;;;;;5082593;28;20767;-69
2022/07/11 03:39:25;;;;;;;14.43;8.00;;;21.20;99.90;;;;;;5069911;28;20205;-68
2022/07/11 03:41:52;;;;;;;16.70;8.93;;;21.10;99.90;;;;;;5070274;28;20178;-69
2022/07/11 03:44:18;;;;;;;14.50;8.73;;;21.20;99.90;;;;;;5053293;28;20171;-69
2022/07/11 03:46:44;;;;;;;15.40;8.87;;;21.20;99.90;;;;;;5086478;28;20197;-68
2022/07/11 03:49:11;;;;;;;16.23;8.63;;;21.20;99.90;;;;;;5069860;28;20202;-69
2022/07/11 03:51:37;;;;;;;16.77;8.53;;;21.20;99.90;;;;;;5060770;28;20182;-68
2022/07/11 03:54:05;;;;;;;16.73;8.57;;;21.20;99.90;;;;;;5070017;28;20186;-69
2022/07/11 03:56:31;;;;;;;11.40;8.40;;;21.20;99.90;;;;;;5076362;28;20278;-69
2022/07/11 03:58:58;;;;;;;14.53;8.93;;;21.30;99.90;;;;;;5067956;28;20198;-68
2022/07/11 04:01:24;;;;;;;14.80;8.93;;;21.30;99.90;;;;;;5067813;28;20220;-69
2022/07/11 04:03:51;;;;;;;14.90;8.90;;;21.30;99.90;;;;;;5076183;28;20269;-69
2022/07/11 04:06:17;;;;;;;16.23;9.17;;;21.40;99.90;;;;;;5087948;28;20204;-69
2022/07/11 04:08:43;;;;;;;14.23;9.03;;;21.40;99.90;;;;;;5068350;28;20825;-69
2022/07/11 04:11:10;;;;;;;16.13;10.07;;;21.40;99.90;;;;;;5084385;28;20686;-72
2022/07/11 04:13:36;;;;;;;15.13;9.00;;;21.50;99.90;;;;;;5087221;28;20646;-70
2022/07/11 04:16:03;;;;;;;15.17;9.23;;;21.50;99.90;;;;;;5082722;28;20217;-70
2022/07/11 04:18:30;;;;;;;15.37;9.80;;;21.50;99.90;;;;;;5063851;28;20190;-70
2022/07/11 04:20:56;;;;;;;14.43;8.87;;;21.60;99.90;;;;;;5073046;28;20557;-70
2022/07/11 04:23:22;;;;;;;16.30;8.80;;;21.60;99.90;;;;;;5073535;28;20775;-70
2022/07/11 04:25:48;;;;;;;14.83;9.27;;;21.70;99.90;;;;;;5078449;28;20244;-71
2022/07/11 04:28:15;;;;;;;16.00;9.40;;;21.70;99.90;;;;;;5085746;28;20193;-69
2022/07/11 04:30:41;;;;;;;12.30;8.87;;;21.70;99.90;;;;;;5083456;28;20201;-70
2022/07/11 04:33:07;;;;;;;15.60;9.70;;;21.80;99.90;;;;;;5080362;28;20234;-70
2022/07/11 04:35:33;;;;;;;14.97;9.50;;;21.90;99.90;;;;;;5056432;28;20222;-70
2022/07/11 04:38:00;;;;;;;14.40;9.07;;;22.00;99.90;;;;;;5075192;28;20747;-70
2022/07/11 04:40:26;;;;;;;18.73;9.77;;;22.00;99.90;;;;;;5068074;28;20218;-71
2022/07/11 04:42:52;;;;;;;16.13;9.80;;;22.10;99.90;;;;;;5084611;28;20196;-70
2022/07/11 04:45:19;;;;;;;12.80;9.27;;;22.20;99.90;;;;;;5054053;28;20247;-70
2022/07/11 04:47:46;;;;;;;17.27;10.47;;;22.20;99.90;;;;;;5067373;28;20198;-70
2022/07/11 04:50:12;;;;;;;13.77;9.17;;;22.20;99.90;;;;;;5088478;28;20581;-69
2022/07/11 04:52:38;;;;;;;20.23;10.40;;;22.30;99.90;;;;;;5070156;28;21361;-70
2022/07/11 04:55:05;;;;;;;20.83;10.33;;;22.30;99.90;;;;;;5050783;28;20234;-70
2022/07/11 04:57:31;;;;;;;19.00;10.17;;;22.40;99.90;;;;;;5084072;28;20213;-72
2022/07/11 04:59:58;;;;;;;17.17;9.97;;;22.40;99.90;;;;;;5084585;28;20263;-70
2022/07/11 05:02:24;;;;;;;14.03;9.47;;;22.40;99.90;;;;;;5061168;28;20194;-70
2022/07/11 05:04:51;;;;;;;18.70;10.27;;;22.50;99.90;;;;;;5079557;28;20193;-70
2022/07/11 05:07:17;;;;;;;12.93;9.27;;;22.60;99.90;;;;;;5086871;28;20228;-71
2022/07/11 05:09:43;;;;;;;17.63;10.03;;;22.60;99.90;;;;;;5053040;28;20269;-72
2022/07/11 05:12:10;;;;;;;14.80;9.93;;;22.70;99.90;;;;;;5055095;28;20553;-70
2022/07/11 05:14:38;;;;;;;14.30;9.40;;;22.70;99.90;;;;;;5066092;28;20182;-70
2022/07/11 05:17:04;;;;;;;19.33;10.20;;;22.70;99.90;;;;;;5060575;28;20250;-70
2022/07/11 05:19:30;;;;;;;16.93;9.60;;;22.70;99.90;;;;;;5080621;28;20213;-70
2022/07/11 05:21:57;;;;;;;21.90;9.27;;;22.70;99.90;;;;;;5064848;28;20245;-70
2022/07/11 05:24:25;;;;;;;18.03;9.57;;;22.80;99.90;;;;;;5086239;28;20699;-71
2022/07/11 05:26:51;;;;;;;12.67;8.90;;;22.80;99.90;;;;;;5052767;28;20197;-70
2022/07/11 05:29:18;;;;;;;14.50;9.10;;;22.90;99.90;;;;;;5067496;28;20844;-70
2022/07/11 05:31:50;;;;;;;10.77;8.23;;;22.90;99.90;;;;;;5070156;28;20189;-70
2022/07/11 05:34:17;;;;;;;12.57;8.40;;;22.90;99.90;;;;;;5069399;28;20214;-71
2022/07/11 05:36:43;;;;;;;13.67;8.83;;;23.00;99.90;;;;;;5066494;28;20547;-69
2022/07/11 05:39:10;;;;;;;16.20;8.03;;;23.00;99.90;;;;;;5070970;28;20237;-70
2022/07/11 05:41:36;;;;;;;17.40;7.83;;;23.10;99.90;;;;;;5061928;28;20186;-71
2022/07/11 05:44:03;;;;;;;15.03;8.00;;;23.20;99.90;;;;;;5060666;28;20192;-70
2022/07/11 05:46:30;;;;;;;12.27;7.50;;;23.20;99.90;;;;;;5074447;28;20193;-70
2022/07/11 05:48:56;;;;;;;12.33;7.53;;;23.30;99.90;;;;;;5088543;28;20189;-69
2022/07/11 05:51:23;;;;;;;11.37;7.03;;;23.40;99.90;;;;;;5046064;28;20261;-70
2022/07/11 05:53:49;;;;;;;15.20;7.70;;;23.40;99.90;;;;;;5087984;28;20277;-70
2022/07/11 05:56:18;;;;;;;12.87;7.87;;;23.40;99.90;;;;;;5081027;28;20193;-69
2022/07/11 05:58:45;;;;;;;10.50;7.07;;;23.40;99.90;;;;;;5059625;28;20187;-69
2022/07/11 06:01:11;;;;;;;11.30;7.23;;;23.50;99.90;;;;;;5078753;28;20183;-70
2022/07/11 06:03:39;;;;;;;12.70;7.30;;;23.50;99.90;;;;;;5064618;28;20183;-70
2022/07/11 06:06:06;;;;;;;11.52;6.97;;;23.60;99.90;;;;;;5083788;28;20197;-69
2022/07/11 06:08:42;;;;;;;15.37;7.53;;;23.80;99.90;;;;;;5088671;28;20265;-70
2022/07/11 06:11:14;;;;;;;12.45;6.78;;;23.90;99.90;;;;;;5088585;28;20774;-70
2022/07/11 06:13:47;;;;;;;18.60;7.00;;;23.80;99.90;;;;;;5054641;28;20202;-70
2022/07/11 06:16:13;;;;;;;10.15;6.90;;;23.90;99.90;;;;;;5089271;28;20285;-70
2022/07/11 06:18:40;;;;;;;11.77;6.13;;;23.90;99.90;;;;;;5071138;28;20193;-70
2022/07/11 06:21:07;;;;;;;9.23;6.00;;;24.00;99.90;;;;;;5088485;28;20209;-70
2022/07/11 06:23:37;;;;;;;15.15;7.55;;;24.10;99.90;;;;;;5085182;28;20276;-70
2022/07/11 06:26:04;;;;;;;12.15;5.90;;;24.10;99.90;;;;;;5075307;28;20204;-70
2022/07/11 06:28:31;;;;;;;12.57;6.07;;;24.10;99.90;;;;;;5069860;28;20281;-70
2022/07/11 06:30:59;;;;;;;11.45;6.25;;;24.10;99.90;;;;;;5081570;28;20198;-70
2022/07/11 06:33:25;;;;;;;11.80;6.13;;;24.20;99.90;;;;;;5063062;28;20200;-69
2022/07/11 06:35:52;;;;;;;8.80;5.93;;;24.20;99.90;;;;;;5061427;28;20713;-70
2022/07/11 06:38:19;;;;;;;14.13;6.10;;;24.30;99.90;;;;;;5088035;28;20530;-71
2022/07/11 06:40:46;;;;;;;9.82;5.80;;;24.30;99.90;;;;;;5076199;28;20753;-70
2022/07/11 06:43:13;;;;;;;10.05;5.80;;;24.30;99.90;;;;;;5087920;28;20989;-71
2022/07/11 06:45:39;;;;;;;10.63;5.47;;;24.40;99.90;;;;;;5088536;28;20198;-70
2022/07/11 06:48:07;;;;;;;14.68;5.88;;;24.60;99.90;;;;;;5088467;28;20230;-70
2022/07/11 06:50:36;;;;;;;8.23;5.30;;;24.70;99.90;;;;;;5086254;28;20186;-70
2022/07/11 06:53:02;;;;;;;10.10;5.32;;;24.70;99.90;;;;;;5046685;28;20182;-70
2022/07/11 06:55:29;;;;;;;8.68;4.75;;;24.70;99.90;;;;;;5061395;28;20586;-70
2022/07/11 06:57:55;;;;;;;7.85;4.88;;;24.80;99.90;;;;;;5084830;28;20194;-72
2022/07/11 07:00:21;;;;;;;7.28;4.90;;;24.70;99.90;;;;;;5075964;28;20210;-72
2022/07/11 07:02:47;;;;;;;12.05;4.78;;;24.90;99.90;;;;;;5061613;28;20239;-71
2022/07/11 07:05:14;;;;;;;7.80;5.35;;;24.90;99.90;;;;;;5087632;28;20290;-71
2022/07/11 07:07:40;;;;;;;10.93;5.18;;;25.10;99.90;;;;;;5080039;28;20306;-70
2022/07/11 07:10:08;;;;;;;9.57;5.05;;;25.20;99.90;;;;;;5079576;28;20212;-70
2022/07/11 07:12:40;;;;;;;12.30;5.25;;;25.30;99.90;;;;;;5083748;28;20198;-72
2022/07/11 07:15:09;;;;;;;11.63;4.95;;;25.40;99.90;;;;;;5080928;28;20374;-71
2022/07/11 07:17:35;;;;;;;9.80;5.22;;;25.50;99.90;;;;;;5049499;28;20292;-71
2022/07/11 07:20:03;;;;;;;9.60;4.50;;;25.50;99.90;;;;;;5052635;28;20229;-70
2022/07/11 07:22:30;;;;;;;8.85;4.75;;;25.60;99.90;;;;;;5068992;28;20206;-71
2022/07/11 07:24:57;;;;;;;7.40;4.50;;;25.70;99.90;;;;;;5072569;28;20186;-71
2022/07/11 07:27:24;;;;;;;9.73;4.63;;;25.80;99.90;;;;;;5066477;28;20292;-72
2022/07/11 07:29:50;;;;;;;6.78;4.10;;;25.80;99.90;;;;;;5086359;28;20219;-70
2022/07/11 07:32:16;;;;;;;9.43;5.30;;;25.80;99.90;;;;;;5049015;28;20190;-70
2022/07/11 07:34:43;;;;;;;7.40;4.38;;;25.80;99.90;;;;;;5077874;28;20196;-70
2022/07/11 07:37:09;;;;;;;6.32;4.63;;;25.80;99.90;;;;;;5090523;28;20186;-70
2022/07/11 07:39:35;;;;;;;12.35;5.03;;;25.90;99.90;;;;;;5071179;28;20218;-71
2022/07/11 07:42:02;;;;;;;10.43;5.00;;;26.00;99.90;;;;;;5085731;28;20200;-71
2022/07/11 07:44:28;;;;;;;13.73;5.57;;;26.10;99.90;;;;;;5081189;28;20195;-71
2022/07/11 07:46:55;;;;;;;9.68;5.00;;;26.10;99.90;;;;;;5084038;28;20590;-70
2022/07/11 07:49:21;;;;;;;8.13;4.85;;;26.30;99.90;;;;;;5044761;28;20197;-71
2022/07/11 07:51:47;;;;;;;14.95;5.65;;;26.50;99.90;;;;;;5083595;28;20277;-71
2022/07/11 07:54:14;;;;;;;19.08;6.63;;;26.80;99.90;;;;;;5089303;28;20197;-71
2022/07/11 07:56:40;;;;;;;15.48;7.35;;;27.00;99.90;;;;;;5066686;28;20621;-70
2022/07/11 07:59:07;;;;;;;13.60;6.55;;;27.10;99.90;;;;;;5080037;28;21051;-70
2022/07/11 08:01:36;;;;;;;15.80;7.63;;;27.20;99.90;;;;;;5074536;28;20182;-70
2022/07/11 08:04:09;;;;;;;16.02;6.93;;;27.20;99.90;;;;;;5063601;28;20185;-71
2022/07/11 08:06:36;;;;;;;13.18;6.55;;;27.10;99.90;;;;;;5079485;28;20202;-71
2022/07/11 08:09:05;;;;;;;21.92;7.05;;;27.20;99.90;;;;;;5081496;28;20202;-71
2022/07/11 08:11:34;;;;;;;15.57;6.63;;;27.30;99.90;;;;;;5083690;28;20395;-70
2022/07/11 08:14:03;;;;;;;17.00;7.32;;;27.30;99.90;;;;;;5089922;28;20205;-70
2022/07/11 08:16:30;;;;;;;14.70;7.25;;;27.50;99.90;;;;;;5085162;28;20202;-71
2022/07/11 08:18:59;;;;;;;16.45;6.68;;;27.50;99.90;;;;;;5066580;28;20237;-70
2022/07/11 08:21:26;;;;;;;13.80;6.20;;;27.50;99.90;;;;;;5054387;28;20193;-71
2022/07/11 08:23:52;;;;;;;19.27;7.47;;;27.50;99.90;;;;;;5070781;28;20545;-71
2022/07/11 08:26:19;;;;;;;18.60;6.85;;;27.60;99.90;;;;;;5064903;28;20692;-70
2022/07/11 08:28:45;;;;;;;15.23;6.38;;;27.70;99.90;;;;;;5087727;28;20672;-70
2022/07/11 08:31:11;;;;;;;13.95;6.80;;;27.90;99.90;;;;;;5077202;28;20186;-70
2022/07/11 08:33:38;;;;;;;13.20;6.15;;;27.90;99.90;;;;;;5064563;28;20236;-71
2022/07/11 08:36:06;;;;;;;16.85;6.53;;;27.90;99.90;;;;;;5080603;28;20195;-71
2022/07/11 08:38:32;;;;;;;12.30;6.00;;;27.90;99.90;;;;;;5065712;28;20187;-71
2022/07/11 08:40:59;;;;;;;12.40;6.70;;;28.10;99.90;;;;;;5069315;28;20242;-71
2022/07/11 08:43:29;;;;;;;15.68;6.03;;;28.30;99.90;;;;;;5053377;28;20261;-71
2022/07/11 08:45:57;;;;;;;15.40;6.70;;;28.30;99.90;;;;;;5087167;28;20182;-70
2022/07/11 08:48:25;;;;;;;17.67;6.85;;;28.30;99.90;;;;;;5069870;28;20218;-70
2022/07/11 08:50:52;;;;;;;13.20;6.32;;;28.40;99.90;;;;;;5067278;28;22032;-70
2022/07/11 08:53:19;;;;;;;17.98;6.18;;;28.40;99.90;;;;;;5089229;28;20229;-70
2022/07/11 08:55:49;;;;;;;13.70;6.35;;;28.50;99.90;;;;;;5086938;28;20193;-71
2022/07/11 08:58:17;;;;;;;15.10;6.40;;;28.70;99.90;;;;;;5085555;28;20617;-70
2022/07/11 09:00:44;;;;;;;15.13;6.38;;;28.90;99.90;;;;;;5084539;28;20249;-71
2022/07/11 09:03:17;;;;;;;16.98;6.05;;;28.90;99.90;;;;;;5085232;28;20872;-70
2022/07/11 09:05:46;;;;;;;13.15;6.38;;;28.90;99.90;;;;;;5074378;28;20186;-70
2022/07/11 09:08:12;;;;;;;11.80;6.25;;;29.10;99.90;;;;;;5085267;28;20208;-70
2022/07/11 09:10:40;;;;;;;12.60;6.20;;;29.10;99.90;;;;;;5087109;28;20186;-69
2022/07/11 09:13:10;;;;;;;15.50;6.03;;;29.10;99.90;;;;;;5064450;28;20220;-70
2022/07/11 09:15:45;;;;;;;13.43;6.40;;;29.10;99.90;;;;;;5064935;28;20210;-70
2022/07/11 09:18:41;;;;;;;13.93;6.72;;;29.20;99.90;;;;;;5091867;28;20193;-72
2022/07/11 09:26:51;;;;;;;13.88;6.05;;;29.30;99.90;;;;;;5083762;28;20201;-70
2022/07/11 09:29:25;;;;;;;14.60;6.65;;;29.40;99.90;;;;;;5059457;28;20189;-70
2022/07/11 09:31:52;;;;;;;17.00;5.88;;;29.40;99.90;;;;;;5080891;28;20243;-70
2022/07/11 09:34:27;;;;;;;13.65;6.68;;;29.40;99.90;;;;;;5073032;28;20281;-71
2022/07/11 09:36:55;;;;;;;16.35;6.90;;;29.50;99.90;;;;;;5062277;28;20182;-70
2022/07/11 09:39:28;;;;;;;13.98;6.25;;;29.50;99.90;;;;;;5085490;28;20238;-70
2022/07/11 09:41:56;;;;;;;17.63;7.10;;;29.70;99.90;;;;;;5084481;28;20186;-71
2022/07/11 09:44:28;;;;;;;17.65;6.80;;;29.60;99.90;;;;;;5088396;28;20256;-71
2022/07/11 09:46:59;;;;;;;17.10;5.90;;;29.70;99.90;;;;;;5086563;28;20240;-71
2022/07/11 09:49:36;;;;;;;13.60;6.35;;;29.80;99.90;;;;;;5082387;28;20281;-70
2022/07/11 09:52:15;;;;;;;13.40;6.57;;;30.00;99.90;;;;;;5082685;28;20197;-70
2022/07/11 09:55:05;;;;;;;12.55;6.07;;;30.20;99.90;;;;;;5085811;28;20186;-71
2022/07/11 09:57:37;;;;;;;16.05;6.13;;;30.10;99.90;;;;;;5067928;28;20193;-71
2022/07/11 10:00:11;;;;;;;13.90;6.40;;;30.10;99.90;;;;;;5084632;28;20221;-71
2022/07/11 10:02:38;;;;;;;17.70;6.22;;;30.20;99.90;;;;;;5081926;28;20229;-71
2022/07/11 10:05:05;;;;;;;18.05;6.32;;;30.50;99.90;;;;;;5069344;28;20273;-71
2022/07/11 10:07:33;;;;;;;12.70;6.30;;;30.40;99.90;;;;;;5065314;28;20590;-70
2022/07/11 10:10:01;;;;;;;20.30;6.78;;;30.50;99.90;;;;;;5064227;28;20182;-70
2022/07/11 10:12:29;;;;;;;17.58;6.45;;;30.50;99.90;;;;;;5083314;28;20335;-72
2022/07/11 10:15:01;;;;;;;12.95;6.13;;;30.20;99.90;;;;;;5085218;28;20667;-70
2022/07/11 10:18:07;;;;;;;14.23;6.53;;;30.30;99.90;;;;;;5088402;28;20238;-70
2022/07/11 10:21:06;;;;;;;14.95;6.68;;;30.40;99.90;;;;;;5081393;28;20228;-71
2022/07/11 10:24:23;;;;;;;13.20;6.13;;;30.40;99.90;;;;;;5052518;28;20196;-71
2022/07/11 10:27:15;;;;;;;19.00;6.60;;;30.50;99.90;;;;;;5083290;28;20203;-71
2022/07/11 10:29:53;;;;;;;15.48;6.68;;;30.30;99.90;;;;;;5087829;28;20657;-70
2022/07/11 10:32:20;;;;;;;15.98;6.88;;;30.20;99.90;;;;;;5064318;28;20596;-70
2022/07/11 10:35:15;;;;;;;13.07;6.70;;;30.10;99.90;;;;;;5064856;28;20282;-70
2022/07/11 10:37:51;;;;;;;17.02;6.20;;;30.20;99.90;;;;;;5060614;28;20227;-70
2022/07/11 10:40:45;;;;;;;12.65;6.18;;;30.20;99.90;;;;;;5081099;28;20224;-70
2022/07/11 10:43:40;;;;;;;19.33;6.60;;;30.30;99.90;;;;;;5067353;28;20191;-71
2022/07/11 10:46:19;;;;;;;16.92;6.78;;;30.30;99.90;;;;;;5053844;28;20236;-70
2022/07/11 10:49:00;;;;;;;11.95;5.90;;;30.30;99.90;;;;;;5082446;28;20193;-70
2022/07/11 10:51:50;;;;;;;14.50;6.85;;;30.40;99.90;;;;;;5082538;28;20190;-71
2022/07/11 10:54:42;;;;;;;15.88;6.25;;;30.40;99.90;;;;;;5085997;28;20202;-69
2022/07/11 10:57:28;;;;;;;12.75;6.20;;;30.60;99.90;;;;;;5066837;28;20237;-69
2022/07/11 11:00:00;;;;;;;18.73;6.57;;;30.60;99.90;;;;;;5069189;28;20648;-69
2022/07/11 11:02:28;;;;;;;14.82;6.75;;;30.60;99.90;;;;;;5082854;28;20235;-72
2022/07/11 11:05:02;;;;;;;14.02;6.30;;;30.50;99.90;;;;;;5085272;28;20243;-69
2022/07/11 11:07:43;;;;;;;14.35;6.30;;;30.50;99.90;;;;;;5081686;28;20193;-71
2022/07/11 11:10:33;;;;;;;14.48;6.38;;;30.60;99.90;;;;;;5073797;28;20666;-69
2022/07/11 11:13:06;;;;;;;16.83;6.43;;;30.40;99.90;;;;;;5066967;28;20194;-70
2022/07/11 11:15:51;;;;;;;14.20;6.25;;;30.50;99.90;;;;;;5044992;28;20194;-70
2022/07/11 11:18:27;;;;;;;12.35;6.15;;;30.30;99.90;;;;;;5082321;28;20297;-70
2022/07/11 11:21:06;;;;;;;14.57;6.38;;;30.40;99.90;;;;;;5069369;28;20309;-70
2022/07/11 11:23:38;;;;;;;12.25;6.28;;;30.40;99.90;;;;;;5081387;28;20654;-71
2022/07/11 11:26:16;;;;;;;18.40;6.68;;;30.40;99.90;;;;;;5083976;28;20198;-69
2022/07/11 11:29:05;;;;;;;12.70;6.07;;;30.40;99.90;;;;;;5085751;28;20931;-69
2022/07/11 11:31:33;;;;;;;16.75;6.53;;;30.30;99.90;;;;;;5069842;28;20272;-69
2022/07/11 11:34:03;;;;;;;17.52;7.05;;;30.40;99.90;;;;;;5088212;28;20296;-68
2022/07/11 11:36:30;;;;;;;14.43;6.00;;;30.40;99.90;;;;;;5062875;28;20201;-69
2022/07/11 11:38:57;;;;;;;18.85;6.60;;;30.30;99.90;;;;;;5082707;28;20182;-69
2022/07/11 11:41:29;;;;;;;12.00;6.18;;;30.30;99.90;;;;;;5075278;28;20214;-69
2022/07/11 11:43:59;;;;;;;15.02;6.97;;;30.40;99.90;;;;;;5067113;28;20184;-69
2022/07/11 11:46:28;;;;;;;12.88;6.07;;;30.30;99.90;;;;;;5084752;28;20221;-69
2022/07/11 11:49:04;;;;;;;18.85;6.55;;;30.30;99.90;;;;;;5066957;28;20287;-70
2022/07/11 11:51:32;;;;;;;13.43;6.30;;;30.20;99.90;;;;;;5082798;28;20515;-69
2022/07/11 11:54:02;;;;;;;19.83;6.68;;;30.20;99.90;;;;;;5065299;28;20186;-69
2022/07/11 11:56:39;;;;;;;16.80;6.30;;;30.20;99.90;;;;;;5086830;28;20178;-69
2022/07/11 11:59:12;;;;;;;14.30;6.00;;;30.40;99.90;;;;;;5083340;28;20332;-69
2022/07/11 12:01:44;;;;;;;20.77;6.65;;;30.20;99.90;;;;;;5085715;28;20194;-70
2022/07/11 12:04:14;;;;;;;15.75;6.30;;;30.20;99.90;;;;;;5060590;28;20283;-70
2022/07/11 12:06:50;;;;;;;17.10;6.65;;;30.10;99.90;;;;;;5074018;28;20294;-71
2022/07/11 12:14:51;;;;;;;25.33;6.47;;;30.00;99.90;;;;;;5068475;28;20613;-68
2022/07/11 12:17:29;;;;;;;14.13;6.38;;;30.10;99.90;;;;;;5066802;28;20260;-69
2022/07/11 12:19:57;;;;;;;15.13;5.82;;;30.30;99.90;;;;;;5073200;28;20257;-68
2022/07/11 12:22:24;;;;;;;16.08;6.53;;;30.30;99.90;;;;;;5079528;28;20844;-68
2022/07/11 12:24:52;;;;;;;16.00;6.45;;;30.20;99.90;;;;;;5066750;28;20966;-70
2022/07/11 12:27:25;;;;;;;19.80;7.07;;;30.10;99.90;;;;;;5060956;28;20202;-70
2022/07/11 12:29:52;;;;;;;15.35;6.32;;;30.20;99.90;;;;;;5084884;28;20187;-68
2022/07/11 12:32:22;;;;;;;19.73;6.18;;;30.20;99.90;;;;;;5085565;28;20234;-69
2022/07/11 12:34:50;;;;;;;15.90;6.93;;;30.20;99.90;;;;;;5050382;28;20190;-69
2022/07/11 12:37:20;;;;;;;21.38;6.65;;;30.20;99.90;;;;;;5065080;28;20213;-68
2022/07/11 12:40:06;;;;;;;14.38;5.85;;;30.30;99.90;;;;;;5066925;28;20206;-68
2022/07/11 12:42:35;;;;;;;20.00;6.53;;;30.40;99.90;;;;;;5079700;28;20266;-70
2022/07/11 12:45:07;;;;;;;17.38;6.47;;;30.30;99.90;;;;;;5078444;28;20555;-70
2022/07/11 12:47:47;;;;;;;18.83;6.00;;;30.30;99.90;;;;;;5078215;28;20187;-68
2022/07/11 12:50:14;;;;;;;20.33;6.25;;;30.20;99.90;;;;;;5086210;28;20224;-70
2022/07/11 12:52:45;;;;;;;15.43;6.10;;;30.20;99.90;;;;;;5061037;28;20186;-68
2022/07/11 12:55:20;;;;;;;15.00;5.97;;;30.20;99.90;;;;;;5081716;28;20209;-68
2022/07/11 12:58:16;;;;;;;16.77;6.45;;;30.00;99.90;;;;;;5071155;28;20840;-69
2022/07/11 13:01:05;;;;;;;19.73;6.05;;;30.10;99.90;;;;;;5083449;28;20220;-68